Aérodrome :
LOGIN :

S'inscrire | Disclaimer

   EN    FR    IT 

 










Légende :    VFR   VFR Marginal   IFR   IFR Intensif   IFR Très Intensif
Visi : 
Plafond : 
>= 8 km
>= 3000ft
5 à 8 km
1000 à 3000 ft
1500m à 5 km
500 à 1000 ft
800 à 1500m
200 à 500 ft
< 800m
< 200 ft
Symboles :   Orages  Brouillard  Fortes neiges  Fortes précipitations  Vent > 20 kt
SIGMETs :   Divers  Orages  Givrage  Turbulence  Onde Orograph.  Cendres Volcan.






- Altitude de l'aérodrome : 325 ft
- Code IATA : BES


LFRB - Brest

DERNIER METAR :
  • 102130Z AUTO 36005KT 330V030 4400 BR FEW003 BKN090 18/17 Q1015 NOSIG

METARs EXPIRÉS :
  • 102100Z AUTO 36007KT 4800 BR FEW003 BKN094 BKN110 18/17 Q1014 BECMG 9999 NSW
  • 102030Z AUTO 01006KT 5000 BR NSC 18/17 Q1014 NOSIG
  • 102000Z AUTO 36007KT 6000 NSC 19/17 Q1014 NOSIG
  • 101930Z AUTO 35006KT CAVOK 20/17 Q1014 NOSIG
  • 101900Z AUTO 36006KT CAVOK 21/17 Q1014 NOSIG
  • 101830Z AUTO 02007KT CAVOK 22/18 Q1014 NOSIG

TAF AMD TAF LFRB
Valide du 10 à 21h jusqu'au 12 à 00h UTC


102112Z 1021/1124 02010KT 4000 BR SCT002 BKN090
TEMPO 1100/1107 SHRA
PROB30
TEMPO 1101/1105 02015G30KT 2000 TSRA BKN012CB
BECMG 1108/1110 9999 NSW SCT018
TEMPO 1110/1118 SHRA
ATIS : +33 2 98 32 02 71



MET'MAP, la Météo Aéronautique d'un coup d'oeil ! - Copyright ORBIFLY Décembre 2007 - Disclaimer

ORBIFLY MET'MAP TEAM :

Programmation & Développement : Alexandra Zaïnal
Sur une idée originale de : Baudouin d'Aumeries
Assistance à la programmation : Marc-Olivier Méhu
Soutien technique & logistique : Manuel Goepfert

Contact : metmap@orbifly.com




SOURCES & CREDITS :

   NOAA